createdAt,value
2023-04-20T00:03:46.234Z,9
2023-04-20T00:13:45.998Z,8.7
2023-04-20T00:23:45.990Z,8.6
2023-04-20T00:33:45.952Z,8.6
2023-04-20T00:43:45.933Z,8.6
2023-04-20T00:53:45.932Z,8.3
2023-04-20T01:03:46.100Z,8.2
2023-04-20T01:13:45.894Z,7.9
2023-04-20T01:23:45.894Z,7.9
2023-04-20T01:33:45.880Z,7.7
2023-04-20T01:43:45.846Z,7.6
2023-04-20T01:53:45.833Z,7.5
2023-04-20T02:03:46.071Z,7.4
2023-04-20T02:13:45.816Z,7.4
2023-04-20T02:23:45.811Z,7.4
2023-04-20T02:33:45.810Z,7.2
2023-04-20T02:43:45.816Z,7
2023-04-20T02:53:45.766Z,6.9
2023-04-20T03:03:45.861Z,7
2023-04-20T03:13:45.728Z,7.2
2023-04-20T03:23:45.767Z,7.2
2023-04-20T03:33:45.703Z,7.2
2023-04-20T03:43:45.700Z,7.2
2023-04-20T03:53:45.662Z,7.3
2023-04-20T04:03:46.027Z,7.3
2023-04-20T04:13:45.648Z,7.5
2023-04-20T04:23:45.656Z,7.4
2023-04-20T04:33:45.649Z,7.6
2023-04-20T04:43:45.604Z,7.7
2023-04-20T04:53:45.609Z,7.9
2023-04-20T05:03:45.689Z,8.1
2023-04-20T05:13:45.537Z,8.2
2023-04-20T05:23:45.526Z,8.4
2023-04-20T05:33:45.537Z,8.5
2023-04-20T05:43:45.524Z,8.8
2023-04-20T05:53:45.486Z,9.1
2023-04-20T06:03:45.632Z,9.3
2023-04-20T06:13:45.488Z,9.7
2023-04-20T06:23:45.460Z,10.2
2023-04-20T06:33:45.426Z,10.5
2023-04-20T06:43:45.397Z,10.7
2023-04-20T06:53:45.392Z,10.7
2023-04-20T07:03:45.559Z,10.8
2023-04-20T07:13:45.355Z,10.8
2023-04-20T07:23:45.457Z,10.6
2023-04-20T07:33:45.317Z,10.5
2023-04-20T07:43:45.328Z,10.3
2023-04-20T07:53:45.325Z,10.1
2023-04-20T08:03:45.443Z,10.2
2023-04-20T08:13:45.283Z,10.2
2023-04-20T08:23:45.234Z,10.4
2023-04-20T08:33:45.242Z,10.3
2023-04-20T08:43:45.232Z,10.8
2023-04-20T08:53:45.222Z,11.3
2023-04-20T09:03:45.320Z,11.9
2023-04-20T09:13:45.170Z,12.2
2023-04-20T09:23:45.133Z,13.5
2023-04-20T09:33:45.106Z,15.7
2023-04-20T09:43:45.112Z,16.8
2023-04-20T09:53:45.102Z,17.9
2023-04-20T10:03:45.270Z,19.8
2023-04-20T10:13:45.062Z,20.3
2023-04-20T10:23:45.019Z,18.9
2023-04-20T10:33:45.066Z,18.1
2023-04-20T10:43:44.996Z,16.9
2023-04-20T10:53:44.985Z,15.2
2023-04-20T11:03:45.005Z,13.6
2023-04-20T11:13:44.939Z,13
2023-04-20T11:23:44.945Z,13
2023-04-20T11:33:44.968Z,13.8
2023-04-20T11:43:44.890Z,14.3
2023-04-20T11:53:44.858Z,15.1
2023-04-20T12:03:47.593Z,15.5
2023-04-20T12:13:44.833Z,15.5
2023-04-20T12:23:44.795Z,15.9
2023-04-20T12:33:44.782Z,16.3
2023-04-20T12:43:44.747Z,16.4
2023-04-20T12:53:44.766Z,16.3
2023-04-20T13:03:44.930Z,16.5
2023-04-20T13:13:44.689Z,16.2
2023-04-20T13:23:44.713Z,15.8
2023-04-20T13:33:44.672Z,15.7
2023-04-20T13:43:44.645Z,16.1
2023-04-20T13:53:44.620Z,16.3
2023-04-20T14:03:44.895Z,16.1
2023-04-20T14:13:44.584Z,17.1
2023-04-20T14:23:44.583Z,17.7
2023-04-20T14:33:44.546Z,17.7
2023-04-20T14:43:44.524Z,17.7
2023-04-20T14:53:44.526Z,17.6
2023-04-20T15:03:44.667Z,17.4
2023-04-20T15:13:44.611Z,17.2
2023-04-20T15:23:44.453Z,17.2
2023-04-20T15:33:44.884Z,17.4
2023-04-20T15:43:44.401Z,17.2
2023-04-20T15:53:44.373Z,16.8
2023-04-20T16:03:46.044Z,16.2
2023-04-20T16:13:44.367Z,15.7
2023-04-20T16:23:44.342Z,15.2
2023-04-20T16:33:44.332Z,14.8
2023-04-20T16:43:44.329Z,14.3
2023-04-20T16:53:44.285Z,13.6
2023-04-20T17:03:44.486Z,13.4
2023-04-20T17:13:44.229Z,13.3
2023-04-20T17:23:44.240Z,12.9
2023-04-20T17:33:44.202Z,12.6
2023-04-20T17:43:44.196Z,12.2
2023-04-20T17:53:44.177Z,12
2023-04-20T18:03:44.355Z,11.9
2023-04-20T18:13:44.159Z,11.7
2023-04-20T18:23:44.124Z,11.6
2023-04-20T18:33:44.166Z,11.5
2023-04-20T18:43:44.101Z,11.2
2023-04-20T18:53:44.052Z,11
2023-04-20T19:03:47.153Z,10.7
2023-04-20T19:13:44.065Z,10.7
2023-04-20T19:23:44.031Z,10.6
2023-04-20T19:33:44.025Z,10.6
2023-04-20T19:43:43.979Z,10.5
2023-04-20T19:53:43.980Z,10.4
2023-04-20T20:03:44.086Z,10.2
2023-04-20T20:13:43.953Z,10.1
2023-04-20T20:23:43.952Z,10
2023-04-20T20:33:43.912Z,10.1
2023-04-20T20:43:43.906Z,10
2023-04-20T20:53:43.875Z,10
2023-04-20T21:03:44.038Z,10
2023-04-20T21:13:43.830Z,10
2023-04-20T21:23:43.776Z,9.9
2023-04-20T21:33:43.777Z,9.8
2023-04-20T21:43:43.759Z,9.8
2023-04-20T21:53:43.729Z,9.7
2023-04-20T22:03:43.892Z,9.6
2023-04-20T22:13:43.711Z,9.5
2023-04-20T22:23:43.704Z,9.4
2023-04-20T22:33:43.692Z,9.4
2023-04-20T22:43:43.665Z,9.2
2023-04-20T22:53:43.670Z,9.2
2023-04-20T23:03:43.786Z,9.3
2023-04-20T23:13:43.673Z,9.3
2023-04-20T23:23:43.669Z,9.4
2023-04-20T23:33:43.599Z,9.4
2023-04-20T23:43:43.631Z,9.4
2023-04-20T23:53:43.576Z,9.3
